sensor_id;sensor_type;location;lat;lon;timestamp;temperature;humidity
41987;DHT22;28361;50.740;7.084;2022-09-09T07:59:07;18.20;99.90
41987;DHT22;28361;50.740;7.084;2022-09-09T08:01:41;18.90;95.00
41987;DHT22;28361;50.740;7.084;2022-09-09T08:04:11;18.80;95.10
41987;DHT22;28361;50.740;7.084;2022-09-09T08:06:42;18.90;94.90
41987;DHT22;28361;50.740;7.084;2022-09-09T08:09:08;18.90;93.50
41987;DHT22;28361;50.740;7.084;2022-09-09T08:11:35;18.90;93.40
41987;DHT22;28361;50.740;7.084;2022-09-09T08:16:30;18.90;94.50
41987;DHT22;28361;50.740;7.084;2022-09-09T08:18:58;19.00;91.50
41987;DHT22;28361;50.740;7.084;2022-09-09T08:21:29;19.10;93.70
41987;DHT22;28361;50.740;7.084;2022-09-09T08:23:59;19.30;91.20
41987;DHT22;28361;50.740;7.084;2022-09-09T08:26:30;19.40;90.40
41987;DHT22;28361;50.740;7.084;2022-09-09T08:28:57;19.50;91.80
41987;DHT22;28361;50.740;7.084;2022-09-09T08:31:35;19.90;79.90
41987;DHT22;28361;50.740;7.084;2022-09-09T08:34:02;19.80;80.90
41987;DHT22;28361;50.740;7.084;2022-09-09T08:54:47;22.60;15.40
41987;DHT22;28361;50.740;7.084;2022-09-09T08:57:22;21.60;29.60
41987;DHT22;28361;50.740;7.084;2022-09-09T08:59:52;20.60;36.90
41987;DHT22;28361;50.740;7.084;2022-09-09T09:23:05;20.70;24.00
41987;DHT22;28361;50.740;7.084;2022-09-09T09:25:35;20.50;29.10
41987;DHT22;28361;50.740;7.084;2022-09-09T09:33:22;20.90;18.20
41987;DHT22;28361;50.740;7.084;2022-09-09T09:35:50;20.90;9.50
41987;DHT22;28361;50.740;7.084;2022-09-09T09:38:26;20.60;14.60
41987;DHT22;28361;50.740;7.084;2022-09-09T09:40:58;20.60;9.80
41987;DHT22;28361;50.740;7.084;2022-09-09T09:43:35;20.50;10.70
41987;DHT22;28361;50.740;7.084;2022-09-09T09:46:04;20.50;12.80
41987;DHT22;28361;50.740;7.084;2022-09-09T09:48:30;20.40;13.40
41987;DHT22;28361;50.740;7.084;2022-09-09T09:51:10;20.60;15.30
41987;DHT22;28361;50.740;7.084;2022-09-09T09:53:38;20.50;13.10
41987;DHT22;28361;50.740;7.084;2022-09-09T09:56:07;20.40;13.50
41987;DHT22;28361;50.740;7.084;2022-09-09T09:58:50;20.80;13.10
41987;DHT22;28361;50.740;7.084;2022-09-09T10:01:27;21.10;9.30
41987;DHT22;28361;50.740;7.084;2022-09-09T10:08:56;21.70;6.30
41987;DHT22;28361;50.740;7.084;2022-09-09T10:11:40;21.60;3.80
41987;DHT22;28361;50.740;7.084;2022-09-09T10:14:28;21.10;10.70
41987;DHT22;28361;50.740;7.084;2022-09-09T10:30:47;20.60;11.60
41987;DHT22;28361;50.740;7.084;2022-09-09T10:44:06;20.50;9.80
41987;DHT22;28361;50.740;7.084;2022-09-09T11:07:59;20.50;9.40
41987;DHT22;28361;50.740;7.084;2022-09-09T11:10:30;22.30;2.50
41987;DHT22;28361;50.740;7.084;2022-09-09T11:13:04;23.20;1.00
41987;DHT22;28361;50.740;7.084;2022-09-09T11:15:42;23.60;1.00
41987;DHT22;28361;50.740;7.084;2022-09-09T11:18:18;22.40;1.00
41987;DHT22;28361;50.740;7.084;2022-09-09T11:20:47;22.10;1.00
41987;DHT22;28361;50.740;7.084;2022-09-09T11:23:21;23.00;1.00
41987;DHT22;28361;50.740;7.084;2022-09-09T11:25:51;22.90;1.00
41987;DHT22;28361;50.740;7.084;2022-09-09T11:34:27;23.00;1.00
41987;DHT22;28361;50.740;7.084;2022-09-09T11:44:46;21.60;1.00
41987;DHT22;28361;50.740;7.084;2022-09-09T11:47:30;21.50;1.20
41987;DHT22;28361;50.740;7.084;2022-09-09T11:52:48;22.00;1.00
41987;DHT22;28361;50.740;7.084;2022-09-09T11:55:27;21.60;1.00
41987;DHT22;28361;50.740;7.084;2022-09-09T11:58:18;21.80;1.00
41987;DHT22;28361;50.740;7.084;2022-09-09T12:00:46;22.20;1.00
41987;DHT22;28361;50.740;7.084;2022-09-09T12:05:57;22.20;1.00
41987;DHT22;28361;50.740;7.084;2022-09-09T12:08:28;22.10;1.00
41987;DHT22;28361;50.740;7.084;2022-09-09T12:10:59;22.20;1.00
41987;DHT22;28361;50.740;7.084;2022-09-09T12:13:25;22.30;1.00
41987;DHT22;28361;50.740;7.084;2022-09-09T12:16:01;22.20;1.00
41987;DHT22;28361;50.740;7.084;2022-09-09T12:23:53;21.90;1.00
41987;DHT22;28361;50.740;7.084;2022-09-09T12:34:41;21.50;1.00
41987;DHT22;28361;50.740;7.084;2022-09-09T12:37:33;21.50;1.00
41987;DHT22;28361;50.740;7.084;2022-09-09T12:40:00;21.40;1.00
41987;DHT22;28361;50.740;7.084;2022-09-09T12:42:28;21.50;1.00
41987;DHT22;28361;50.740;7.084;2022-09-09T12:44:58;21.60;1.00
41987;DHT22;28361;50.740;7.084;2022-09-09T12:47:30;21.50;1.00
41987;DHT22;28361;50.740;7.084;2022-09-09T12:49:59;21.60;1.00
41987;DHT22;28361;50.740;7.084;2022-09-09T12:52:31;21.70;1.00
41987;DHT22;28361;50.740;7.084;2022-09-09T12:55:01;21.60;1.00
41987;DHT22;28361;50.740;7.084;2022-09-09T12:57:33;21.40;1.00
41987;DHT22;28361;50.740;7.084;2022-09-09T13:00:21;21.50;1.00
41987;DHT22;28361;50.740;7.084;2022-09-09T13:02:51;21.30;1.00
41987;DHT22;28361;50.740;7.084;2022-09-09T13:05:20;21.30;1.00
41987;DHT22;28361;50.740;7.084;2022-09-09T13:07:46;21.30;1.00
41987;DHT22;28361;50.740;7.084;2022-09-09T13:10:14;21.30;1.00
41987;DHT22;28361;50.740;7.084;2022-09-09T13:12:42;21.40;1.00
41987;DHT22;28361;50.740;7.084;2022-09-09T13:15:28;21.80;1.00
41987;DHT22;28361;50.740;7.084;2022-09-09T13:18:01;21.80;1.00
41987;DHT22;28361;50.740;7.084;2022-09-09T13:20:28;21.70;1.00
41987;DHT22;28361;50.740;7.084;2022-09-09T13:22:55;21.70;1.00
41987;DHT22;28361;50.740;7.084;2022-09-09T13:27:57;21.10;5.60
41987;DHT22;28361;50.740;7.084;2022-09-09T13:30:30;20.70;26.10
41987;DHT22;28361;50.740;7.084;2022-09-09T13:35:30;20.80;17.20
41987;DHT22;28361;50.740;7.084;2022-09-09T13:37:56;21.10;14.00
41987;DHT22;28361;50.740;7.084;2022-09-09T13:40:23;21.70;9.60
41987;DHT22;28361;50.740;7.084;2022-09-09T13:42:56;21.70;5.40
41987;DHT22;28361;50.740;7.084;2022-09-09T13:45:25;22.10;1.00
41987;DHT22;28361;50.740;7.084;2022-09-09T13:47:54;22.10;1.00
41987;DHT22;28361;50.740;7.084;2022-09-09T13:50:30;22.10;1.00
41987;DHT22;28361;50.740;7.084;2022-09-09T13:52:57;21.60;1.00
41987;DHT22;28361;50.740;7.084;2022-09-09T13:55:26;21.40;3.90
41987;DHT22;28361;50.740;7.084;2022-09-09T13:57:57;21.70;4.70
41987;DHT22;28361;50.740;7.084;2022-09-09T14:02:50;22.10;3.00
41987;DHT22;28361;50.740;7.084;2022-09-09T14:07:43;22.70;1.00
41987;DHT22;28361;50.740;7.084;2022-09-09T14:10:10;22.80;1.00
41987;DHT22;28361;50.740;7.084;2022-09-09T14:12:36;22.70;1.00
41987;DHT22;28361;50.740;7.084;2022-09-09T14:15:04;22.50;1.00
41987;DHT22;28361;50.740;7.084;2022-09-09T14:17:30;22.30;1.00
41987;DHT22;28361;50.740;7.084;2022-09-09T14:19:57;22.20;1.00
41987;DHT22;28361;50.740;7.084;2022-09-09T14:22:23;22.20;4.10
41987;DHT22;28361;50.740;7.084;2022-09-09T14:24:49;23.00;4.40
41987;DHT22;28361;50.740;7.084;2022-09-09T14:27:16;22.80;1.00
41987;DHT22;28361;50.740;7.084;2022-09-09T14:29:42;22.50;1.00
41987;DHT22;28361;50.740;7.084;2022-09-09T14:32:10;22.50;1.00
41987;DHT22;28361;50.740;7.084;2022-09-09T14:34:36;22.20;1.00
41987;DHT22;28361;50.740;7.084;2022-09-09T14:37:02;22.10;1.90
41987;DHT22;28361;50.740;7.084;2022-09-09T14:39:27;22.10;1.00
41987;DHT22;28361;50.740;7.084;2022-09-09T14:41:53;22.10;3.20
41987;DHT22;28361;50.740;7.084;2022-09-09T14:44:19;22.30;1.00
41987;DHT22;28361;50.740;7.084;2022-09-09T14:46:44;22.20;1.00
41987;DHT22;28361;50.740;7.084;2022-09-09T14:49:10;22.50;1.00
41987;DHT22;28361;50.740;7.084;2022-09-09T14:51:36;22.30;1.00
41987;DHT22;28361;50.740;7.084;2022-09-09T14:54:02;22.00;4.10
41987;DHT22;28361;50.740;7.084;2022-09-09T14:56:31;22.60;1.00
41987;DHT22;28361;50.740;7.084;2022-09-09T14:59:00;23.30;1.00
41987;DHT22;28361;50.740;7.084;2022-09-09T15:01:29;23.60;1.00
41987;DHT22;28361;50.740;7.084;2022-09-09T15:04:01;23.70;1.00
41987;DHT22;28361;50.740;7.084;2022-09-09T15:06:29;23.30;1.00
41987;DHT22;28361;50.740;7.084;2022-09-09T15:08:56;22.50;1.00
41987;DHT22;28361;50.740;7.084;2022-09-09T15:11:25;21.80;2.70
41987;DHT22;28361;50.740;7.084;2022-09-09T15:13:51;21.60;8.60
41987;DHT22;28361;50.740;7.084;2022-09-09T15:16:19;21.80;7.10
41987;DHT22;28361;50.740;7.084;2022-09-09T15:18:50;21.60;4.60
41987;DHT22;28361;50.740;7.084;2022-09-09T15:21:18;21.60;8.00
41987;DHT22;28361;50.740;7.084;2022-09-09T15:23:45;21.60;7.00
41987;DHT22;28361;50.740;7.084;2022-09-09T15:26:11;21.60;7.90
41987;DHT22;28361;50.740;7.084;2022-09-09T15:28:39;21.60;9.70
41987;DHT22;28361;50.740;7.084;2022-09-09T15:31:19;21.60;10.10
41987;DHT22;28361;50.740;7.084;2022-09-09T15:33:52;21.70;9.10
41987;DHT22;28361;50.740;7.084;2022-09-09T15:36:21;21.60;11.10
41987;DHT22;28361;50.740;7.084;2022-09-09T15:38:47;21.60;10.30
41987;DHT22;28361;50.740;7.084;2022-09-09T15:41:14;21.30;10.60
41987;DHT22;28361;50.740;7.084;2022-09-09T15:43:44;21.10;11.60
41987;DHT22;28361;50.740;7.084;2022-09-09T15:48:42;20.60;71.30
41987;DHT22;28361;50.740;7.084;2022-09-09T15:51:10;20.50;54.90
41987;DHT22;28361;50.740;7.084;2022-09-09T15:53:39;20.50;66.90
41987;DHT22;28361;50.740;7.084;2022-09-09T15:56:05;20.50;62.10
41987;DHT22;28361;50.740;7.084;2022-09-09T15:58:35;20.50;72.00
41987;DHT22;28361;50.740;7.084;2022-09-09T16:01:06;20.50;57.20
41987;DHT22;28361;50.740;7.084;2022-09-09T16:03:37;20.50;62.40
41987;DHT22;28361;50.740;7.084;2022-09-09T16:06:04;20.40;77.00
41987;DHT22;28361;50.740;7.084;2022-09-09T16:08:39;20.40;64.20
41987;DHT22;28361;50.740;7.084;2022-09-09T16:11:16;20.40;90.50
41987;DHT22;28361;50.740;7.084;2022-09-09T16:13:43;20.40;94.70
41987;DHT22;28361;50.740;7.084;2022-09-09T16:16:11;20.10;94.40
41987;DHT22;28361;50.740;7.084;2022-09-09T16:18:39;19.90;96.40
41987;DHT22;28361;50.740;7.084;2022-09-09T16:21:06;19.80;99.60
41987;DHT22;28361;50.740;7.084;2022-09-09T16:23:34;19.70;98.00
41987;DHT22;28361;50.740;7.084;2022-09-09T16:26:01;19.70;96.70
41987;DHT22;28361;50.740;7.084;2022-09-09T16:28:27;19.70;98.60
41987;DHT22;28361;50.740;7.084;2022-09-09T16:30:53;19.60;99.80
41987;DHT22;28361;50.740;7.084;2022-09-09T16:33:19;19.70;95.10
41987;DHT22;28361;50.740;7.084;2022-09-09T16:35:45;19.80;92.40
41987;DHT22;28361;50.740;7.084;2022-09-09T16:38:11;19.80;87.80
41987;DHT22;28361;50.740;7.084;2022-09-09T16:40:38;19.90;87.00
41987;DHT22;28361;50.740;7.084;2022-09-09T16:43:04;19.70;89.20
41987;DHT22;28361;50.740;7.084;2022-09-09T16:45:31;19.50;97.90
41987;DHT22;28361;50.740;7.084;2022-09-09T16:47:58;19.30;99.90
41987;DHT22;28361;50.740;7.084;2022-09-09T16:50:27;18.90;99.90
41987;DHT22;28361;50.740;7.084;2022-09-09T16:52:53;18.40;99.90
41987;DHT22;28361;50.740;7.084;2022-09-09T16:55:19;18.20;99.90
41987;DHT22;28361;50.740;7.084;2022-09-09T16:57:47;18.10;99.90
41987;DHT22;28361;50.740;7.084;2022-09-09T17:00:17;18.00;99.90
41987;DHT22;28361;50.740;7.084;2022-09-09T17:02:43;17.90;99.90
41987;DHT22;28361;50.740;7.084;2022-09-09T17:05:10;17.80;99.90
41987;DHT22;28361;50.740;7.084;2022-09-09T17:07:37;17.90;99.90
41987;DHT22;28361;50.740;7.084;2022-09-09T17:10:05;18.00;99.90
41987;DHT22;28361;50.740;7.084;2022-09-09T17:12:32;18.10;99.90
41987;DHT22;28361;50.740;7.084;2022-09-09T17:14:58;18.10;99.90
41987;DHT22;28361;50.740;7.084;2022-09-09T17:17:26;18.20;99.90
41987;DHT22;28361;50.740;7.084;2022-09-09T17:19:52;18.20;99.90
41987;DHT22;28361;50.740;7.084;2022-09-09T17:22:18;18.20;99.90
41987;DHT22;28361;50.740;7.084;2022-09-09T17:24:45;18.10;99.90
41987;DHT22;28361;50.740;7.084;2022-09-09T17:27:11;17.90;99.90
41987;DHT22;28361;50.740;7.084;2022-09-09T17:29:38;17.90;99.90
41987;DHT22;28361;50.740;7.084;2022-09-09T17:32:04;17.80;99.90
41987;DHT22;28361;50.740;7.084;2022-09-09T17:34:31;17.80;99.90
41987;DHT22;28361;50.740;7.084;2022-09-09T17:36:56;17.80;99.90
41987;DHT22;28361;50.740;7.084;2022-09-09T17:39:22;17.80;99.90
41987;DHT22;28361;50.740;7.084;2022-09-09T17:41:48;17.80;99.90
41987;DHT22;28361;50.740;7.084;2022-09-09T17:44:14;17.80;99.90
41987;DHT22;28361;50.740;7.084;2022-09-09T17:46:42;17.70;99.90
41987;DHT22;28361;50.740;7.084;2022-09-09T17:49:13;17.70;99.90
41987;DHT22;28361;50.740;7.084;2022-09-09T17:51:40;17.80;99.90
41987;DHT22;28361;50.740;7.084;2022-09-09T17:54:15;17.80;99.90
41987;DHT22;28361;50.740;7.084;2022-09-09T17:56:42;17.70;99.90
41987;DHT22;28361;50.740;7.084;2022-09-09T17:59:10;17.70;99.90
41987;DHT22;28361;50.740;7.084;2022-09-09T18:01:38;17.70;99.90
41987;DHT22;28361;50.740;7.084;2022-09-09T18:04:07;17.70;99.90
41987;DHT22;28361;50.740;7.084;2022-09-09T18:06:38;17.70;99.90
41987;DHT22;28361;50.740;7.084;2022-09-09T18:09:06;17.70;99.90
41987;DHT22;28361;50.740;7.084;2022-09-09T18:11:38;17.80;99.90
41987;DHT22;28361;50.740;7.084;2022-09-09T18:14:08;17.80;99.90
41987;DHT22;28361;50.740;7.084;2022-09-09T18:16:35;17.80;99.90
41987;DHT22;28361;50.740;7.084;2022-09-09T18:19:06;17.80;99.90
41987;DHT22;28361;50.740;7.084;2022-09-09T18:21:34;17.80;99.90
41987;DHT22;28361;50.740;7.084;2022-09-09T18:24:02;17.90;99.90
41987;DHT22;28361;50.740;7.084;2022-09-09T18:26:28;17.90;99.90
41987;DHT22;28361;50.740;7.084;2022-09-09T18:28:56;17.90;99.90
41987;DHT22;28361;50.740;7.084;2022-09-09T18:31:24;17.80;99.90
41987;DHT22;28361;50.740;7.084;2022-09-09T18:33:52;17.80;99.90
41987;DHT22;28361;50.740;7.084;2022-09-09T18:36:24;17.70;99.90
41987;DHT22;28361;50.740;7.084;2022-09-09T18:38:50;17.70;99.90
41987;DHT22;28361;50.740;7.084;2022-09-09T18:41:23;17.70;99.90
41987;DHT22;28361;50.740;7.084;2022-09-09T18:43:51;17.70;99.90
41987;DHT22;28361;50.740;7.084;2022-09-09T18:46:18;17.70;99.90
41987;DHT22;28361;50.740;7.084;2022-09-09T18:48:45;17.60;99.90
41987;DHT22;28361;50.740;7.084;2022-09-09T18:51:13;17.60;99.90
41987;DHT22;28361;50.740;7.084;2022-09-09T18:53:41;17.60;99.90
41987;DHT22;28361;50.740;7.084;2022-09-09T18:56:09;17.50;99.90
41987;DHT22;28361;50.740;7.084;2022-09-09T18:58:35;17.50;99.90
41987;DHT22;28361;50.740;7.084;2022-09-09T19:01:02;17.50;99.90
41987;DHT22;28361;50.740;7.084;2022-09-09T19:03:29;17.50;99.90
41987;DHT22;28361;50.740;7.084;2022-09-09T19:06:03;17.40;99.90
41987;DHT22;28361;50.740;7.084;2022-09-09T19:08:29;17.40;99.90
41987;DHT22;28361;50.740;7.084;2022-09-09T19:10:55;17.40;99.90
41987;DHT22;28361;50.740;7.084;2022-09-09T19:13:21;17.40;99.90
41987;DHT22;28361;50.740;7.084;2022-09-09T19:15:47;17.40;99.90
41987;DHT22;28361;50.740;7.084;2022-09-09T19:18:13;17.30;99.90
41987;DHT22;28361;50.740;7.084;2022-09-09T19:20:38;17.30;99.90
41987;DHT22;28361;50.740;7.084;2022-09-09T19:23:04;17.30;99.90
41987;DHT22;28361;50.740;7.084;2022-09-09T19:25:35;17.30;99.90
41987;DHT22;28361;50.740;7.084;2022-09-09T19:28:02;17.30;99.90
41987;DHT22;28361;50.740;7.084;2022-09-09T19:30:29;17.30;99.90
41987;DHT22;28361;50.740;7.084;2022-09-09T19:32:54;17.30;99.90
41987;DHT22;28361;50.740;7.084;2022-09-09T19:35:21;17.40;99.90
41987;DHT22;28361;50.740;7.084;2022-09-09T19:37:47;17.30;99.90
41987;DHT22;28361;50.740;7.084;2022-09-09T19:40:13;17.30;99.90
41987;DHT22;28361;50.740;7.084;2022-09-09T19:42:39;17.30;99.90
41987;DHT22;28361;50.740;7.084;2022-09-09T19:45:06;17.30;99.90
41987;DHT22;28361;50.740;7.084;2022-09-09T19:47:35;17.20;99.90
41987;DHT22;28361;50.740;7.084;2022-09-09T19:50:01;17.30;99.90
41987;DHT22;28361;50.740;7.084;2022-09-09T19:52:30;17.20;99.90
41987;DHT22;28361;50.740;7.084;2022-09-09T19:54:56;17.20;99.90
41987;DHT22;28361;50.740;7.084;2022-09-09T19:57:22;17.20;99.90
41987;DHT22;28361;50.740;7.084;2022-09-09T19:59:48;17.20;99.90
41987;DHT22;28361;50.740;7.084;2022-09-09T20:02:14;17.20;99.90
41987;DHT22;28361;50.740;7.084;2022-09-09T20:04:40;17.20;99.90
41987;DHT22;28361;50.740;7.084;2022-09-09T20:07:06;17.20;99.90
41987;DHT22;28361;50.740;7.084;2022-09-09T20:09:33;17.20;99.90
41987;DHT22;28361;50.740;7.084;2022-09-09T20:11:58;17.20;99.90
41987;DHT22;28361;50.740;7.084;2022-09-09T20:14:25;17.20;99.90
41987;DHT22;28361;50.740;7.084;2022-09-09T20:16:50;17.10;99.90
41987;DHT22;28361;50.740;7.084;2022-09-09T20:19:16;17.10;99.90
41987;DHT22;28361;50.740;7.084;2022-09-09T20:21:44;17.20;99.90
41987;DHT22;28361;50.740;7.084;2022-09-09T20:24:12;17.20;99.90
41987;DHT22;28361;50.740;7.084;2022-09-09T20:26:38;17.20;99.90
41987;DHT22;28361;50.740;7.084;2022-09-09T20:29:06;17.20;99.90
41987;DHT22;28361;50.740;7.084;2022-09-09T20:31:34;17.20;99.90
41987;DHT22;28361;50.740;7.084;2022-09-09T20:34:02;17.20;99.90
41987;DHT22;28361;50.740;7.084;2022-09-09T20:36:30;17.30;99.90
41987;DHT22;28361;50.740;7.084;2022-09-09T20:39:09;17.30;99.90
41987;DHT22;28361;50.740;7.084;2022-09-09T20:41:36;17.30;99.90
41987;DHT22;28361;50.740;7.084;2022-09-09T20:44:05;17.30;99.90
41987;DHT22;28361;50.740;7.084;2022-09-09T20:46:36;17.30;99.90
41987;DHT22;28361;50.740;7.084;2022-09-09T20:49:04;17.30;99.90
41987;DHT22;28361;50.740;7.084;2022-09-09T20:51:32;17.30;99.90
41987;DHT22;28361;50.740;7.084;2022-09-09T20:54:06;17.30;99.90
41987;DHT22;28361;50.740;7.084;2022-09-09T20:56:35;17.30;99.90
41987;DHT22;28361;50.740;7.084;2022-09-09T20:59:06;17.20;99.90
41987;DHT22;28361;50.740;7.084;2022-09-09T21:01:32;17.30;99.90
41987;DHT22;28361;50.740;7.084;2022-09-09T21:03:57;17.30;99.90
41987;DHT22;28361;50.740;7.084;2022-09-09T21:06:24;17.30;99.90
41987;DHT22;28361;50.740;7.084;2022-09-09T21:08:50;17.30;99.90
41987;DHT22;28361;50.740;7.084;2022-09-09T21:11:16;17.30;99.90
41987;DHT22;28361;50.740;7.084;2022-09-09T21:13:42;17.20;99.90
41987;DHT22;28361;50.740;7.084;2022-09-09T21:16:14;17.20;99.90
41987;DHT22;28361;50.740;7.084;2022-09-09T21:18:40;17.20;99.90
41987;DHT22;28361;50.740;7.084;2022-09-09T21:21:08;17.20;99.90
41987;DHT22;28361;50.740;7.084;2022-09-09T21:23:33;17.10;99.90
41987;DHT22;28361;50.740;7.084;2022-09-09T21:26:00;17.10;99.90
41987;DHT22;28361;50.740;7.084;2022-09-09T21:28:26;17.20;99.90
41987;DHT22;28361;50.740;7.084;2022-09-09T21:30:53;17.10;99.90
41987;DHT22;28361;50.740;7.084;2022-09-09T21:33:22;17.10;99.90
41987;DHT22;28361;50.740;7.084;2022-09-09T21:35:48;17.10;99.90
41987;DHT22;28361;50.740;7.084;2022-09-09T21:38:20;17.10;99.90
41987;DHT22;28361;50.740;7.084;2022-09-09T21:40:46;17.10;99.90
41987;DHT22;28361;50.740;7.084;2022-09-09T21:43:15;17.10;99.90
41987;DHT22;28361;50.740;7.084;2022-09-09T21:45:42;17.10;99.90
41987;DHT22;28361;50.740;7.084;2022-09-09T21:48:13;17.20;99.90
41987;DHT22;28361;50.740;7.084;2022-09-09T21:50:41;17.20;99.90
41987;DHT22;28361;50.740;7.084;2022-09-09T21:53:08;17.20;99.90
41987;DHT22;28361;50.740;7.084;2022-09-09T21:55:36;17.10;99.90
41987;DHT22;28361;50.740;7.084;2022-09-09T21:58:03;17.20;99.90
41987;DHT22;28361;50.740;7.084;2022-09-09T22:00:30;17.10;99.90
41987;DHT22;28361;50.740;7.084;2022-09-09T22:03:00;17.10;99.90
41987;DHT22;28361;50.740;7.084;2022-09-09T22:05:27;17.10;99.90
41987;DHT22;28361;50.740;7.084;2022-09-09T22:07:53;17.00;99.90
41987;DHT22;28361;50.740;7.084;2022-09-09T22:10:20;17.10;99.90
41987;DHT22;28361;50.740;7.084;2022-09-09T22:12:46;17.00;99.90
41987;DHT22;28361;50.740;7.084;2022-09-09T22:15:12;17.00;99.90
41987;DHT22;28361;50.740;7.084;2022-09-09T22:17:38;16.90;99.90
41987;DHT22;28361;50.740;7.084;2022-09-09T22:20:04;16.90;99.90
41987;DHT22;28361;50.740;7.084;2022-09-09T22:22:30;16.90;99.90
41987;DHT22;28361;50.740;7.084;2022-09-09T22:24:55;16.90;99.90
41987;DHT22;28361;50.740;7.084;2022-09-09T22:27:21;16.90;99.90
41987;DHT22;28361;50.740;7.084;2022-09-09T22:29:46;16.90;99.90
41987;DHT22;28361;50.740;7.084;2022-09-09T22:32:12;16.90;99.90
41987;DHT22;28361;50.740;7.084;2022-09-09T22:34:38;16.80;99.90
41987;DHT22;28361;50.740;7.084;2022-09-09T22:37:04;16.80;99.90
41987;DHT22;28361;50.740;7.084;2022-09-09T22:39:31;16.70;99.90
41987;DHT22;28361;50.740;7.084;2022-09-09T22:41:57;16.70;99.90
41987;DHT22;28361;50.740;7.084;2022-09-09T22:44:24;16.70;99.90
41987;DHT22;28361;50.740;7.084;2022-09-09T22:46:55;16.70;99.90
41987;DHT22;28361;50.740;7.084;2022-09-09T22:49:21;16.70;99.90
41987;DHT22;28361;50.740;7.084;2022-09-09T22:51:47;16.70;99.90
41987;DHT22;28361;50.740;7.084;2022-09-09T22:54:13;16.60;99.90
41987;DHT22;28361;50.740;7.084;2022-09-09T22:56:39;16.60;99.90
41987;DHT22;28361;50.740;7.084;2022-09-09T22:59:06;16.60;99.90
41987;DHT22;28361;50.740;7.084;2022-09-09T23:01:32;16.60;99.90
41987;DHT22;28361;50.740;7.084;2022-09-09T23:03:57;16.60;99.90
41987;DHT22;28361;50.740;7.084;2022-09-09T23:06:25;16.60;99.90
41987;DHT22;28361;50.740;7.084;2022-09-09T23:08:59;16.60;99.90
41987;DHT22;28361;50.740;7.084;2022-09-09T23:11:27;16.60;99.90
41987;DHT22;28361;50.740;7.084;2022-09-09T23:13:57;16.60;99.90
41987;DHT22;28361;50.740;7.084;2022-09-09T23:16:30;16.60;99.90
41987;DHT22;28361;50.740;7.084;2022-09-09T23:18:58;16.50;99.90
41987;DHT22;28361;50.740;7.084;2022-09-09T23:21:27;16.50;99.90
41987;DHT22;28361;50.740;7.084;2022-09-09T23:23:55;16.50;99.90
41987;DHT22;28361;50.740;7.084;2022-09-09T23:26:22;16.50;99.90
41987;DHT22;28361;50.740;7.084;2022-09-09T23:28:49;16.50;99.90
41987;DHT22;28361;50.740;7.084;2022-09-09T23:31:21;16.40;99.90
41987;DHT22;28361;50.740;7.084;2022-09-09T23:33:47;16.40;99.90
41987;DHT22;28361;50.740;7.084;2022-09-09T23:36:20;16.40;99.90
41987;DHT22;28361;50.740;7.084;2022-09-09T23:38:46;16.40;99.90
41987;DHT22;28361;50.740;7.084;2022-09-09T23:41:15;16.30;99.90
41987;DHT22;28361;50.740;7.084;2022-09-09T23:43:44;16.30;99.90
41987;DHT22;28361;50.740;7.084;2022-09-09T23:46:12;16.30;99.90
41987;DHT22;28361;50.740;7.084;2022-09-09T23:48:39;16.20;99.90
41987;DHT22;28361;50.740;7.084;2022-09-09T23:51:10;16.20;99.90
41987;DHT22;28361;50.740;7.084;2022-09-09T23:53:45;16.20;99.90
41987;DHT22;28361;50.740;7.084;2022-09-09T23:56:37;16.30;99.90
41987;DHT22;28361;50.740;7.084;2022-09-09T23:59:04;16.30;99.90
